createdAt,value
2023-01-27T00:00:45.298Z,1018.41
2023-01-27T00:02:45.435Z,1018.34
2023-01-27T00:04:45.424Z,1018.33
2023-01-27T00:05:45.446Z,1018.33
2023-01-27T00:06:45.462Z,1018.33
2023-01-27T00:07:45.593Z,1018.35
2023-01-27T00:09:45.548Z,1018.36
2023-01-27T00:10:45.606Z,1018.36
2023-01-27T00:11:45.608Z,1018.34
2023-01-27T00:12:45.632Z,1018.36
2023-01-27T00:13:45.655Z,1018.39
2023-01-27T00:15:45.757Z,1018.37
2023-01-27T00:16:45.740Z,1018.36
2023-01-27T00:20:45.858Z,1018.38
2023-01-27T00:21:45.883Z,1018.35
2023-01-27T00:22:45.912Z,1018.38
2023-01-27T00:23:45.932Z,1018.42
2023-01-27T00:24:45.957Z,1018.40
2023-01-27T00:26:46.025Z,1018.42
2023-01-27T00:27:46.035Z,1018.46
2023-01-27T00:28:46.068Z,1018.47
2023-01-27T00:30:46.147Z,1018.45
2023-01-27T00:31:46.488Z,1018.45
2023-01-27T00:32:46.175Z,1018.50
2023-01-27T00:33:46.199Z,1018.51
2023-01-27T00:34:46.228Z,1018.44
2023-01-27T00:35:46.262Z,1018.53
2023-01-27T00:36:46.289Z,1018.48
2023-01-27T00:37:46.313Z,1018.47
2023-01-27T00:40:46.415Z,1018.46
2023-01-27T00:41:46.425Z,1018.49
2023-01-27T00:43:46.483Z,1018.48
2023-01-27T00:44:46.512Z,1018.50
2023-01-27T00:47:46.609Z,1018.53
2023-01-27T00:48:46.612Z,1018.50
2023-01-27T00:49:46.638Z,1018.54
2023-01-27T00:50:46.673Z,1018.55
2023-01-27T00:51:46.697Z,1018.56
2023-01-27T00:52:47.023Z,1018.53
2023-01-27T00:53:46.759Z,1018.52
2023-01-27T00:54:46.773Z,1018.49
2023-01-27T00:55:46.810Z,1018.50
2023-01-27T00:56:46.836Z,1018.50
2023-01-27T00:57:46.861Z,1018.49
2023-01-27T00:58:46.892Z,1018.50
2023-01-27T00:59:47.220Z,1018.55
2023-01-27T01:00:46.939Z,1018.51
2023-01-27T01:01:47.026Z,1018.57
2023-01-27T01:02:47.048Z,1018.54
2023-01-27T01:03:47.045Z,1018.58
2023-01-27T01:04:47.050Z,1018.57
2023-01-27T01:05:47.094Z,1018.66
2023-01-27T01:06:47.371Z,1018.60
2023-01-27T01:07:47.142Z,1018.65
2023-01-27T01:08:47.161Z,1018.64
2023-01-27T01:09:47.204Z,1018.66
2023-01-27T01:10:47.227Z,1018.71
2023-01-27T01:11:47.242Z,1018.63
2023-01-27T01:12:47.265Z,1018.65
2023-01-27T01:13:47.614Z,1018.68
2023-01-27T01:14:47.320Z,1018.69
2023-01-27T01:15:47.393Z,1018.73
2023-01-27T01:16:47.378Z,1018.68
2023-01-27T01:17:47.400Z,1018.72
2023-01-27T01:18:47.440Z,1018.71
2023-01-27T01:19:47.484Z,1018.74
2023-01-27T01:20:47.736Z,1018.82
2023-01-27T01:21:47.511Z,1018.80
2023-01-27T01:22:47.535Z,1018.82
2023-01-27T01:23:47.575Z,1018.80
2023-01-27T01:24:47.602Z,1018.76
2023-01-27T01:25:47.622Z,1018.79
2023-01-27T01:26:47.644Z,1018.77
2023-01-27T01:27:47.927Z,1018.76
2023-01-27T01:28:47.724Z,1018.77
2023-01-27T01:29:47.733Z,1018.80
2023-01-27T01:30:47.816Z,1018.80
2023-01-27T01:31:47.806Z,1018.83
2023-01-27T01:33:48.150Z,1018.84
2023-01-27T01:34:47.872Z,1018.85
2023-01-27T01:35:47.913Z,1018.92
2023-01-27T01:36:47.922Z,1018.91
2023-01-27T01:37:47.943Z,1018.87
2023-01-27T01:38:47.993Z,1018.97
2023-01-27T01:39:48.000Z,1018.96
2023-01-27T01:40:48.331Z,1018.96
2023-01-27T01:41:48.062Z,1018.92
2023-01-27T01:44:48.136Z,1018.91
2023-01-27T01:45:48.170Z,1018.87
2023-01-27T01:46:48.222Z,1018.90
2023-01-27T01:48:48.583Z,1018.89
2023-01-27T01:49:48.292Z,1018.93
2023-01-27T01:50:48.327Z,1018.94
2023-01-27T01:51:48.352Z,1018.93
2023-01-27T01:52:49.003Z,1018.94
2023-01-27T01:53:48.401Z,1018.91
2023-01-27T01:54:48.409Z,1018.90
2023-01-27T01:56:48.726Z,1018.91
2023-01-27T01:57:48.523Z,1018.92
2023-01-27T01:58:48.526Z,1018.95
2023-01-27T02:00:48.636Z,1018.92
2023-01-27T02:01:48.614Z,1018.89
2023-01-27T02:02:48.773Z,1018.86
2023-01-27T02:03:48.961Z,1018.85
2023-01-27T02:04:48.686Z,1018.86
2023-01-27T02:05:48.715Z,1018.86
2023-01-27T02:06:48.747Z,1018.84
2023-01-27T02:07:48.793Z,1018.85
2023-01-27T02:08:48.797Z,1018.89
2023-01-27T02:09:48.836Z,1018.91
2023-01-27T02:10:49.104Z,1018.90
2023-01-27T02:11:48.876Z,1018.91
2023-01-27T02:12:48.902Z,1018.91
2023-01-27T02:13:48.941Z,1018.86
2023-01-27T02:14:48.963Z,1018.92
2023-01-27T02:15:48.991Z,1018.90
2023-01-27T02:16:49.200Z,1018.88
2023-01-27T02:18:49.374Z,1018.84
2023-01-27T02:19:49.110Z,1018.91
2023-01-27T02:20:49.130Z,1018.89
2023-01-27T02:21:49.748Z,1018.88
2023-01-27T02:22:49.177Z,1018.89
2023-01-27T02:23:49.280Z,1018.90
2023-01-27T02:24:49.232Z,1018.89
2023-01-27T02:26:49.551Z,1018.89
2023-01-27T02:27:49.320Z,1018.88
2023-01-27T02:28:49.360Z,1018.87
2023-01-27T02:29:49.377Z,1018.85
2023-01-27T02:30:49.518Z,1018.91
2023-01-27T02:31:49.496Z,1018.88
2023-01-27T02:32:49.458Z,1018.94
2023-01-27T02:33:49.726Z,1018.91
2023-01-27T02:34:49.520Z,1018.91
2023-01-27T02:35:49.528Z,1018.96
2023-01-27T02:36:49.572Z,1018.93
2023-01-27T02:38:49.649Z,1018.93
2023-01-27T02:39:49.659Z,1018.96
2023-01-27T02:40:49.672Z,1018.95
2023-01-27T02:41:49.698Z,1018.98
2023-01-27T02:42:49.722Z,1019.04
2023-01-27T02:43:49.756Z,1019.01
2023-01-27T02:44:49.780Z,1019.05
2023-01-27T02:45:49.845Z,1019.07
2023-01-27T02:53:50.328Z,1019.17
2023-01-27T02:54:50.052Z,1019.15
2023-01-27T03:02:50.282Z,1019.20
2023-01-27T03:03:50.321Z,1019.23
2023-01-27T03:04:50.438Z,1019.20
2023-01-27T03:05:50.345Z,1019.22
2023-01-27T03:06:50.384Z,1019.29
2023-01-27T03:09:50.509Z,1019.26
2023-01-27T03:10:50.519Z,1019.29
2023-01-27T03:11:50.713Z,1019.29
2023-01-27T03:12:50.677Z,1019.26
2023-01-27T03:13:50.573Z,1019.25
2023-01-27T03:14:50.994Z,1019.26
2023-01-27T03:15:50.683Z,1019.24
2023-01-27T03:16:50.657Z,1019.29
2023-01-27T03:17:50.682Z,1019.26
2023-01-27T03:18:50.753Z,1019.27
2023-01-27T03:19:50.734Z,1019.24
2023-01-27T03:20:51.069Z,1019.27
2023-01-27T03:21:50.781Z,1019.21
2023-01-27T03:22:50.808Z,1019.27
2023-01-27T03:23:50.892Z,1019.22
2023-01-27T03:24:50.866Z,1019.18
2023-01-27T03:25:50.893Z,1019.16
2023-01-27T03:26:51.227Z,1019.16
2023-01-27T03:27:50.973Z,1019.21
2023-01-27T03:28:50.973Z,1019.17
2023-01-27T03:29:50.998Z,1019.16
2023-01-27T03:30:51.226Z,1019.17
2023-01-27T03:31:51.147Z,1019.15
2023-01-27T03:32:51.392Z,1019.17
2023-01-27T03:33:51.109Z,1019.17
2023-01-27T03:34:51.174Z,1019.17
2023-01-27T03:36:51.197Z,1019.22
2023-01-27T03:37:51.216Z,1019.20
2023-01-27T03:38:51.243Z,1019.18
2023-01-27T03:39:51.526Z,1019.25
2023-01-27T03:40:51.302Z,1019.23
2023-01-27T03:41:51.329Z,1019.25
2023-01-27T03:42:51.352Z,1019.23
2023-01-27T03:43:51.382Z,1019.25
2023-01-27T03:44:51.692Z,1019.19
2023-01-27T03:46:51.769Z,1019.26
2023-01-27T03:49:51.550Z,1019.25
2023-01-27T03:50:51.594Z,1019.25
2023-01-27T03:51:51.599Z,1019.22
2023-01-27T03:52:51.627Z,1019.21
2023-01-27T03:53:51.970Z,1019.22
2023-01-27T03:56:51.747Z,1019.28
2023-01-27T03:57:51.765Z,1019.32
2023-01-27T03:58:51.795Z,1019.33
2023-01-27T03:59:51.821Z,1019.34
2023-01-27T04:00:52.168Z,1019.34
2023-01-27T04:01:51.908Z,1019.30
2023-01-27T04:02:51.951Z,1019.33
2023-01-27T04:03:51.936Z,1019.31
2023-01-27T04:04:51.973Z,1019.31
2023-01-27T04:05:51.988Z,1019.31
2023-01-27T04:06:52.046Z,1019.28
2023-01-27T04:07:52.440Z,1019.36
2023-01-27T04:08:52.241Z,1019.33
2023-01-27T04:09:52.111Z,1019.27
2023-01-27T04:10:52.138Z,1019.27
2023-01-27T04:11:52.141Z,1019.31
2023-01-27T04:12:52.170Z,1019.30
2023-01-27T04:13:52.192Z,1019.27
2023-01-27T04:14:52.529Z,1019.29
2023-01-27T04:15:52.307Z,1019.34
2023-01-27T04:16:52.280Z,1019.36
2023-01-27T04:17:52.307Z,1019.35
2023-01-27T04:18:52.433Z,1019.40
2023-01-27T04:19:52.358Z,1019.33
2023-01-27T04:20:52.385Z,1019.35
2023-01-27T04:21:52.661Z,1019.38
2023-01-27T04:22:52.471Z,1019.34
2023-01-27T04:23:52.497Z,1019.38
2023-01-27T04:24:52.498Z,1019.39
2023-01-27T04:25:52.521Z,1019.37
2023-01-27T04:26:52.554Z,1019.39
2023-01-27T04:27:52.572Z,1019.35
2023-01-27T04:28:52.904Z,1019.35
2023-01-27T04:29:52.631Z,1019.38
2023-01-27T04:30:53.173Z,1019.35
2023-01-27T04:31:52.779Z,1019.38
2023-01-27T04:32:52.715Z,1019.39
2023-01-27T04:33:52.743Z,1019.39
2023-01-27T04:34:52.780Z,1019.40
2023-01-27T04:35:53.180Z,1019.35
2023-01-27T04:36:52.841Z,1019.37
2023-01-27T04:37:52.856Z,1019.36
2023-01-27T04:38:52.891Z,1019.36
2023-01-27T04:39:53.317Z,1019.32
2023-01-27T04:40:52.934Z,1019.38
2023-01-27T04:41:52.966Z,1019.35
2023-01-27T04:42:53.339Z,1019.35
2023-01-27T04:43:53.006Z,1019.40
2023-01-27T04:44:53.042Z,1019.39
2023-01-27T04:45:53.107Z,1019.39
2023-01-27T04:46:53.114Z,1019.43
2023-01-27T04:47:53.118Z,1019.42
2023-01-27T04:48:53.144Z,1019.40
2023-01-27T04:49:53.494Z,1019.44
2023-01-27T04:50:53.328Z,1019.44
2023-01-27T04:51:53.227Z,1019.44
2023-01-27T04:52:53.259Z,1019.45
2023-01-27T04:53:53.282Z,1019.45
2023-01-27T04:54:53.328Z,1019.47
2023-01-27T04:55:53.333Z,1019.40
2023-01-27T04:56:53.731Z,1019.41
2023-01-27T04:57:53.385Z,1019.40
2023-01-27T04:58:53.423Z,1019.41
2023-01-27T04:59:53.443Z,1019.45
2023-01-27T05:00:53.477Z,1019.46
2023-01-27T05:01:53.579Z,1019.52
2023-01-27T05:02:53.607Z,1019.51
2023-01-27T05:03:53.957Z,1019.49
2023-01-27T05:04:53.583Z,1019.52
2023-01-27T05:05:53.605Z,1019.50
2023-01-27T05:06:53.635Z,1019.49
2023-01-27T05:07:53.655Z,1019.43
2023-01-27T05:08:53.690Z,1019.47
2023-01-27T05:09:53.713Z,1019.49
2023-01-27T05:10:54.077Z,1019.50
2023-01-27T05:11:53.767Z,1019.55
2023-01-27T05:12:53.795Z,1019.56
2023-01-27T05:13:53.837Z,1019.57
2023-01-27T05:14:53.854Z,1019.59
2023-01-27T05:15:53.911Z,1019.60
2023-01-27T05:16:53.937Z,1019.59
2023-01-27T05:17:54.227Z,1019.59
2023-01-27T05:18:53.964Z,1019.60
2023-01-27T05:19:53.981Z,1019.58
2023-01-27T05:20:54.028Z,1019.60
2023-01-27T05:21:54.047Z,1019.62
2023-01-27T05:22:54.063Z,1019.57
2023-01-27T05:23:54.483Z,1019.61
2023-01-27T05:24:54.128Z,1019.63
2023-01-27T05:25:54.159Z,1019.60
2023-01-27T05:26:54.193Z,1019.59
2023-01-27T05:27:54.204Z,1019.60
2023-01-27T05:28:54.329Z,1019.61
2023-01-27T05:29:54.507Z,1019.61
2023-01-27T05:31:54.407Z,1019.64
2023-01-27T05:32:54.343Z,1019.65
2023-01-27T05:33:54.506Z,1019.63
2023-01-27T05:34:54.504Z,1019.67
2023-01-27T05:35:54.668Z,1019.69
2023-01-27T05:36:54.443Z,1019.70
2023-01-27T05:37:54.479Z,1019.68
2023-01-27T05:38:54.511Z,1019.68
2023-01-27T05:39:54.540Z,1019.71
2023-01-27T05:40:54.568Z,1019.76
2023-01-27T05:41:54.611Z,1019.73
2023-01-27T05:43:55.142Z,1019.74
2023-01-27T05:44:54.769Z,1019.81
2023-01-27T05:45:54.690Z,1019.76
2023-01-27T05:46:54.716Z,1019.76
2023-01-27T05:48:54.779Z,1019.75
2023-01-27T05:49:55.144Z,1019.72
2023-01-27T05:50:54.826Z,1019.80
2023-01-27T05:51:54.852Z,1019.75
2023-01-27T05:52:54.881Z,1019.80
2023-01-27T05:53:54.903Z,1019.79
2023-01-27T05:54:54.928Z,1019.83
2023-01-27T05:55:54.972Z,1019.82
2023-01-27T05:56:56.392Z,1019.83
2023-01-27T05:57:55.015Z,1019.85
2023-01-27T05:58:55.044Z,1019.84
2023-01-27T05:59:55.089Z,1019.82
2023-01-27T06:01:55.265Z,1019.81
2023-01-27T06:02:55.195Z,1019.79
2023-01-27T06:03:55.476Z,1019.80
2023-01-27T06:04:55.211Z,1019.81
2023-01-27T06:05:55.227Z,1019.81
2023-01-27T06:06:55.257Z,1019.79
2023-01-27T06:07:57.604Z,1019.85
2023-01-27T06:08:55.319Z,1019.83
2023-01-27T06:09:55.339Z,1019.82
2023-01-27T06:10:55.613Z,1019.83
2023-01-27T06:11:55.394Z,1019.88
2023-01-27T06:12:55.417Z,1019.84
2023-01-27T06:14:55.464Z,1019.87
2023-01-27T06:15:55.522Z,1019.88
2023-01-27T06:16:55.546Z,1019.85
2023-01-27T06:18:55.929Z,1019.89
2023-01-27T06:19:55.607Z,1019.87
2023-01-27T06:20:55.635Z,1019.87
2023-01-27T06:21:55.661Z,1019.84
2023-01-27T06:22:55.906Z,1019.84
2023-01-27T06:23:55.784Z,1019.84
2023-01-27T06:24:55.773Z,1019.87
2023-01-27T06:25:56.075Z,1019.85
2023-01-27T06:26:55.790Z,1019.88
2023-01-27T06:27:55.844Z,1019.89
2023-01-27T06:28:55.848Z,1019.87
2023-01-27T06:29:55.878Z,1019.90
2023-01-27T06:30:55.955Z,1019.92
2023-01-27T06:31:55.992Z,1019.93
2023-01-27T06:32:56.262Z,1019.91
2023-01-27T06:33:55.983Z,1019.93
2023-01-27T06:34:56.028Z,1019.94
2023-01-27T06:35:56.043Z,1019.90
2023-01-27T06:36:56.063Z,1019.93
2023-01-27T06:37:56.094Z,1019.91
2023-01-27T06:38:56.121Z,1019.90
2023-01-27T06:39:56.159Z,1019.93
2023-01-27T06:40:56.183Z,1019.94
2023-01-27T06:41:56.202Z,1019.96
2023-01-27T06:42:56.223Z,1019.96
2023-01-27T06:43:56.254Z,1019.96
2023-01-27T06:44:56.273Z,1019.97
2023-01-27T06:45:56.610Z,1020.00
2023-01-27T06:46:56.336Z,1020.04
2023-01-27T06:47:56.428Z,1020.07
2023-01-27T06:48:56.386Z,1020.04
2023-01-27T06:49:56.420Z,1020.05
2023-01-27T06:50:56.444Z,1020.08
2023-01-27T06:51:56.469Z,1020.08
2023-01-27T06:52:56.751Z,1020.08
2023-01-27T06:53:56.532Z,1020.11
2023-01-27T06:54:56.544Z,1020.14
2023-01-27T06:55:56.585Z,1020.13
2023-01-27T06:56:56.601Z,1020.17
2023-01-27T06:57:56.642Z,1020.22
2023-01-27T06:58:56.671Z,1020.22
2023-01-27T06:59:56.944Z,1020.21
2023-01-27T07:00:56.717Z,1020.22
2023-01-27T07:01:56.744Z,1020.24
2023-01-27T07:02:56.857Z,1020.24
2023-01-27T07:03:56.822Z,1020.23
2023-01-27T07:04:56.850Z,1020.21
2023-01-27T07:05:56.855Z,1020.20
2023-01-27T07:06:56.879Z,1020.21
2023-01-27T07:07:56.904Z,1020.16
2023-01-27T07:08:56.928Z,1020.25
2023-01-27T07:09:56.976Z,1020.18
2023-01-27T07:10:57.093Z,1020.18
2023-01-27T07:11:57.012Z,1020.25
2023-01-27T07:12:57.332Z,1020.20
2023-01-27T07:14:57.099Z,1020.23
2023-01-27T07:15:57.173Z,1020.20
2023-01-27T07:17:57.184Z,1020.18
2023-01-27T07:18:57.442Z,1020.19
2023-01-27T07:19:57.298Z,1020.23
2023-01-27T07:20:57.259Z,1020.26
2023-01-27T07:21:57.281Z,1020.25
2023-01-27T07:22:57.299Z,1020.21
2023-01-27T07:23:57.340Z,1020.29
2023-01-27T07:24:57.355Z,1020.23
2023-01-27T07:25:59.996Z,1020.28
2023-01-27T07:26:57.411Z,1020.22
2023-01-27T07:27:57.741Z,1020.23
2023-01-27T07:28:57.466Z,1020.24
2023-01-27T07:29:57.496Z,1020.28
2023-01-27T07:30:57.532Z,1020.25
2023-01-27T07:31:57.674Z,1020.30
2023-01-27T07:32:57.576Z,1020.31
2023-01-27T07:33:57.621Z,1020.31
2023-01-27T07:34:57.638Z,1020.28
2023-01-27T07:35:57.682Z,1020.24
2023-01-27T07:36:57.976Z,1020.27
2023-01-27T07:37:57.710Z,1020.25
2023-01-27T07:38:57.733Z,1020.26
2023-01-27T07:39:57.760Z,1020.36
2023-01-27T07:40:57.789Z,1020.33
2023-01-27T07:41:57.852Z,1020.35
2023-01-27T07:42:57.847Z,1020.38
2023-01-27T07:43:58.116Z,1020.36
2023-01-27T07:45:57.933Z,1020.40
2023-01-27T07:46:57.965Z,1020.39
2023-01-27T07:47:57.994Z,1020.42
2023-01-27T07:48:58.006Z,1020.41
2023-01-27T07:49:58.035Z,1020.40
2023-01-27T07:50:58.060Z,1020.42
2023-01-27T07:51:58.113Z,1020.43
2023-01-27T07:52:58.162Z,1020.36
2023-01-27T07:53:58.684Z,1020.40
2023-01-27T07:54:58.485Z,1020.37
2023-01-27T07:55:58.298Z,1020.38
2023-01-27T07:56:58.224Z,1020.42
2023-01-27T07:57:58.248Z,1020.44
2023-01-27T07:59:58.306Z,1020.46
2023-01-27T08:00:58.373Z,1020.43
2023-01-27T08:01:58.366Z,1020.45
2023-01-27T08:02:58.724Z,1020.42
2023-01-27T08:03:58.416Z,1020.43
2023-01-27T08:04:58.513Z,1020.46
2023-01-27T08:05:58.472Z,1020.45
2023-01-27T08:06:58.496Z,1020.46
2023-01-27T08:07:59.187Z,1020.50
2023-01-27T08:08:58.848Z,1020.51
2023-01-27T08:09:58.585Z,1020.51
2023-01-27T08:11:58.628Z,1020.56
2023-01-27T08:12:58.685Z,1020.55
2023-01-27T08:13:58.691Z,1020.54
2023-01-27T08:14:59.004Z,1020.57
2023-01-27T08:15:58.747Z,1020.54
2023-01-27T08:16:58.769Z,1020.62
2023-01-27T08:17:58.803Z,1020.56
2023-01-27T08:18:58.818Z,1020.55
2023-01-27T08:19:58.838Z,1020.59
2023-01-27T08:20:58.872Z,1020.55
2023-01-27T08:21:59.229Z,1020.52
2023-01-27T08:22:58.927Z,1020.59
2023-01-27T08:23:59.323Z,1020.58
2023-01-27T08:24:58.994Z,1020.54
2023-01-27T08:25:59.005Z,1020.63
2023-01-27T08:26:59.064Z,1020.56
2023-01-27T08:27:59.058Z,1020.51
2023-01-27T08:28:59.092Z,1020.58
2023-01-27T08:29:59.114Z,1020.51
2023-01-27T08:30:59.223Z,1020.55
2023-01-27T08:31:59.257Z,1020.51
2023-01-27T08:32:59.214Z,1020.56
2023-01-27T08:33:59.221Z,1020.52
2023-01-27T08:34:59.551Z,1020.54
2023-01-27T08:35:59.275Z,1020.56
2023-01-27T08:36:59.307Z,1020.55
2023-01-27T08:37:59.323Z,1020.57
2023-01-27T08:38:59.359Z,1020.54
2023-01-27T08:39:59.516Z,1020.54
2023-01-27T08:40:59.414Z,1020.59
2023-01-27T08:41:59.705Z,1020.53
2023-01-27T08:42:59.519Z,1020.61
2023-01-27T08:43:59.526Z,1020.60
2023-01-27T08:44:59.525Z,1020.56
2023-01-27T08:45:59.581Z,1020.57
2023-01-27T08:47:59.602Z,1020.57
2023-01-27T08:48:59.656Z,1020.51
2023-01-27T08:49:59.731Z,1020.52
2023-01-27T08:50:59.688Z,1020.52
2023-01-27T08:51:59.716Z,1020.51
2023-01-27T08:52:59.740Z,1020.55
2023-01-27T08:53:59.764Z,1020.54
2023-01-27T08:54:59.887Z,1020.57
2023-01-27T08:55:59.864Z,1020.60
2023-01-27T08:56:59.847Z,1020.59
2023-01-27T08:57:59.875Z,1020.60
2023-01-27T08:58:59.904Z,1020.60
2023-01-27T08:59:59.928Z,1020.56
2023-01-27T09:01:00.289Z,1020.56
2023-01-27T09:01:59.989Z,1020.59
2023-01-27T09:03:00.021Z,1020.61
2023-01-27T09:04:00.053Z,1020.64
2023-01-27T09:05:00.079Z,1020.61
2023-01-27T09:06:00.214Z,1020.60
2023-01-27T09:07:00.128Z,1020.62
2023-01-27T09:08:00.147Z,1020.68
2023-01-27T09:09:00.180Z,1020.62
2023-01-27T09:10:13.729Z,1020.61
2023-01-27T09:11:00.224Z,1020.63
2023-01-27T09:12:00.283Z,1020.61
2023-01-27T09:13:00.289Z,1020.65
2023-01-27T09:14:00.315Z,1020.65
2023-01-27T09:15:00.331Z,1020.64
2023-01-27T09:16:00.417Z,1020.69
2023-01-27T09:17:00.397Z,1020.71
2023-01-27T09:18:00.420Z,1020.69
2023-01-27T09:19:00.699Z,1020.72
2023-01-27T09:20:00.488Z,1020.78
2023-01-27T09:21:00.495Z,1020.77
2023-01-27T09:22:00.528Z,1020.78
2023-01-27T09:23:00.548Z,1020.81
2023-01-27T09:24:00.693Z,1020.78
2023-01-27T09:25:00.610Z,1020.76
2023-01-27T09:26:00.636Z,1020.81
2023-01-27T09:28:00.713Z,1020.85
2023-01-27T09:29:00.719Z,1020.88
2023-01-27T09:30:00.752Z,1020.88
2023-01-27T09:31:00.910Z,1020.89
2023-01-27T09:32:00.899Z,1020.96
2023-01-27T09:33:00.828Z,1020.96
2023-01-27T09:34:00.855Z,1020.92
2023-01-27T09:35:00.893Z,1020.96
2023-01-27T09:36:00.912Z,1020.95
2023-01-27T09:37:00.951Z,1020.99
2023-01-27T09:38:00.967Z,1020.99
2023-01-27T09:39:00.992Z,1020.99
2023-01-27T09:40:01.015Z,1020.97
2023-01-27T09:41:01.042Z,1020.97
2023-01-27T09:42:01.078Z,1020.95
2023-01-27T09:43:01.103Z,1020.96
2023-01-27T09:44:01.392Z,1020.99
2023-01-27T09:46:01.256Z,1021.10
2023-01-27T09:47:01.220Z,1021.07
2023-01-27T09:48:01.239Z,1021.11
2023-01-27T09:49:01.303Z,1021.09
2023-01-27T09:50:01.329Z,1021.12
2023-01-27T09:51:03.256Z,1021.11
2023-01-27T09:52:01.343Z,1021.14
2023-01-27T09:53:01.376Z,1021.16
2023-01-27T09:54:01.406Z,1021.15
2023-01-27T09:56:01.759Z,1021.18
2023-01-27T09:57:01.524Z,1021.21
2023-01-27T09:58:01.546Z,1021.20
2023-01-27T09:59:01.547Z,1021.21
2023-01-27T10:00:01.727Z,1021.18
2023-01-27T10:01:01.592Z,1021.17
2023-01-27T10:02:01.626Z,1021.25
2023-01-27T10:03:01.901Z,1021.16
2023-01-27T10:04:01.679Z,1021.22
2023-01-27T10:05:01.703Z,1021.20
2023-01-27T10:06:01.733Z,1021.20
2023-01-27T10:07:01.768Z,1021.18
2023-01-27T10:09:02.119Z,1021.25
2023-01-27T10:10:01.837Z,1021.20
2023-01-27T10:11:01.870Z,1021.27
2023-01-27T10:12:01.897Z,1021.26
2023-01-27T10:13:01.926Z,1021.20
2023-01-27T10:14:01.959Z,1021.21
2023-01-27T10:15:01.995Z,1021.21
2023-01-27T10:16:02.369Z,1021.20
2023-01-27T10:17:02.041Z,1021.21
2023-01-27T10:18:02.110Z,1021.24
2023-01-27T10:19:02.091Z,1021.23
2023-01-27T10:20:02.116Z,1021.21
2023-01-27T10:21:02.144Z,1021.22
2023-01-27T10:22:02.172Z,1021.23
2023-01-27T10:23:02.446Z,1021.21
2023-01-27T10:24:02.291Z,1021.23
2023-01-27T10:25:02.355Z,1021.27
2023-01-27T10:26:02.272Z,1021.27
2023-01-27T10:27:02.319Z,1021.25
2023-01-27T10:28:02.336Z,1021.23
2023-01-27T10:29:02.359Z,1021.25
2023-01-27T10:30:02.396Z,1021.21
2023-01-27T10:31:02.469Z,1021.22
2023-01-27T10:32:02.485Z,1021.19
2023-01-27T10:33:02.473Z,1021.20
2023-01-27T10:34:02.601Z,1021.25
2023-01-27T10:35:02.524Z,1021.24
2023-01-27T10:36:02.903Z,1021.23
2023-01-27T10:37:02.585Z,1021.26
2023-01-27T10:38:02.610Z,1021.22
2023-01-27T10:39:02.690Z,1021.23
2023-01-27T10:40:02.699Z,1021.22
2023-01-27T10:41:02.695Z,1021.23
2023-01-27T10:42:02.970Z,1021.23
2023-01-27T10:43:02.758Z,1021.25
2023-01-27T10:44:02.786Z,1021.30
2023-01-27T10:45:02.809Z,1021.27
2023-01-27T10:46:02.915Z,1021.27
2023-01-27T10:47:02.907Z,1021.26
2023-01-27T10:48:03.205Z,1021.25
2023-01-27T10:49:02.914Z,1021.27
2023-01-27T10:50:03.040Z,1021.31
2023-01-27T10:51:02.971Z,1021.31
2023-01-27T10:52:03.004Z,1021.30
2023-01-27T10:53:03.039Z,1021.30
2023-01-27T10:54:03.055Z,1021.29
2023-01-27T10:55:03.375Z,1021.28
2023-01-27T10:56:03.109Z,1021.27
2023-01-27T10:57:03.163Z,1021.28
2023-01-27T10:58:03.160Z,1021.29
2023-01-27T10:59:03.183Z,1021.29
2023-01-27T11:00:37.625Z,1021.34
2023-01-27T11:01:21.752Z,1021.30
2023-01-27T11:02:03.344Z,1021.33
2023-01-27T11:03:03.297Z,1021.30
2023-01-27T11:04:03.406Z,1021.30
2023-01-27T11:05:03.351Z,1021.29
2023-01-27T11:06:03.381Z,1021.22
2023-01-27T11:08:03.859Z,1021.22
2023-01-27T11:09:03.467Z,1021.23
2023-01-27T11:10:03.554Z,1021.27
2023-01-27T11:11:03.519Z,1021.21
2023-01-27T11:12:03.581Z,1021.26
2023-01-27T11:13:03.591Z,1021.21
2023-01-27T11:14:03.655Z,1021.21
2023-01-27T11:15:03.627Z,1021.22
2023-01-27T11:16:03.676Z,1021.24
2023-01-27T11:17:03.719Z,1021.19
2023-01-27T11:18:03.718Z,1021.18
2023-01-27T11:19:03.746Z,1021.17
2023-01-27T11:20:03.784Z,1021.22
2023-01-27T11:21:04.091Z,1021.23
2023-01-27T11:22:08.873Z,1021.22
2023-01-27T11:23:03.868Z,1021.18
2023-01-27T11:24:03.939Z,1021.18
2023-01-27T11:25:03.912Z,1021.16
2023-01-27T11:26:04.045Z,1021.15
2023-01-27T11:27:03.967Z,1021.11
2023-01-27T11:28:04.006Z,1021.13
2023-01-27T11:29:04.033Z,1021.17
2023-01-27T11:30:04.109Z,1021.16
2023-01-27T11:31:04.107Z,1021.11
2023-01-27T11:32:04.326Z,1021.09
2023-01-27T11:33:04.123Z,1021.12
2023-01-27T11:34:04.456Z,1021.10
2023-01-27T11:35:04.196Z,1021.06
2023-01-27T11:36:04.256Z,1021.07
2023-01-27T11:37:04.247Z,1021.07
2023-01-27T11:38:14.994Z,1021.04
2023-01-27T11:39:04.311Z,1021.00
2023-01-27T11:40:04.627Z,1020.99
2023-01-27T11:41:04.342Z,1020.98
2023-01-27T11:42:04.384Z,1021.00
2023-01-27T11:43:04.397Z,1021.03
2023-01-27T11:44:04.432Z,1021.03
2023-01-27T11:45:04.478Z,1021.01
2023-01-27T11:46:04.533Z,1021.04
2023-01-27T11:47:04.527Z,1020.98
2023-01-27T11:48:04.536Z,1020.98
2023-01-27T11:49:04.598Z,1020.98
2023-01-27T11:50:04.592Z,1021.03
2023-01-27T11:51:04.852Z,1020.97
2023-01-27T11:52:04.989Z,1021.02
2023-01-27T11:53:04.677Z,1021.06
2023-01-27T11:54:04.806Z,1021.05
2023-01-27T11:55:04.730Z,1020.96
2023-01-27T11:56:04.762Z,1021.01
2023-01-27T11:57:04.801Z,1020.98
2023-01-27T11:58:04.838Z,1020.94
2023-01-27T12:00:04.919Z,1020.93
2023-01-27T12:01:04.901Z,1020.99
2023-01-27T12:02:04.923Z,1020.98
2023-01-27T12:03:04.952Z,1020.89
2023-01-27T12:04:05.032Z,1020.91
2023-01-27T12:05:05.019Z,1020.93
2023-01-27T12:06:05.033Z,1020.90
2023-01-27T12:07:05.106Z,1020.89
2023-01-27T12:08:05.209Z,1020.88
2023-01-27T12:09:05.122Z,1020.88
2023-01-27T12:10:05.156Z,1020.85
2023-01-27T12:11:05.174Z,1020.81
2023-01-27T12:12:05.202Z,1020.84
2023-01-27T12:13:05.231Z,1020.85
2023-01-27T12:14:05.304Z,1020.91
2023-01-27T12:15:05.286Z,1020.92
2023-01-27T12:16:05.387Z,1020.90
2023-01-27T12:17:05.341Z,1020.85
2023-01-27T12:18:05.712Z,1020.86
2023-01-27T12:19:05.437Z,1020.82
2023-01-27T12:20:05.424Z,1020.84
2023-01-27T12:21:05.456Z,1020.85
2023-01-27T12:22:05.792Z,1020.77
2023-01-27T12:23:05.508Z,1020.74
2023-01-27T12:25:05.911Z,1020.73
2023-01-27T12:26:05.591Z,1020.68
2023-01-27T12:27:05.622Z,1020.70
2023-01-27T12:28:05.662Z,1020.70
2023-01-27T12:29:05.679Z,1020.68
2023-01-27T12:30:05.705Z,1020.69
2023-01-27T12:31:06.077Z,1020.66
2023-01-27T12:32:05.851Z,1020.66
2023-01-27T12:33:05.825Z,1020.65
2023-01-27T12:34:05.863Z,1020.71
2023-01-27T12:35:05.853Z,1020.68
2023-01-27T12:36:05.896Z,1020.68
2023-01-27T12:37:05.904Z,1020.66
2023-01-27T12:38:05.931Z,1020.67
2023-01-27T12:39:05.978Z,1020.66
2023-01-27T12:40:06.023Z,1020.64
2023-01-27T12:41:06.025Z,1020.60
2023-01-27T12:42:06.040Z,1020.61
2023-01-27T12:43:06.368Z,1020.57
2023-01-27T12:44:06.093Z,1020.58
2023-01-27T12:45:06.119Z,1020.56
2023-01-27T12:46:06.167Z,1020.59
2023-01-27T12:47:06.181Z,1020.56
2023-01-27T12:48:06.309Z,1020.53
2023-01-27T12:49:06.254Z,1020.51
2023-01-27T12:50:06.564Z,1020.49
2023-01-27T12:51:06.285Z,1020.49
2023-01-27T12:52:06.311Z,1020.49
2023-01-27T12:53:06.352Z,1020.53
2023-01-27T12:54:06.381Z,1020.53
2023-01-27T12:55:06.412Z,1020.56
2023-01-27T12:56:06.441Z,1020.55
2023-01-27T12:57:06.487Z,1020.56
2023-01-27T12:58:06.494Z,1020.58
2023-01-27T12:59:06.522Z,1020.59
2023-01-27T13:00:06.571Z,1020.54
2023-01-27T13:01:06.623Z,1020.56
2023-01-27T13:02:06.620Z,1020.53
2023-01-27T13:03:06.931Z,1020.53
2023-01-27T13:04:06.651Z,1020.56
2023-01-27T13:05:06.673Z,1020.58
2023-01-27T13:06:06.699Z,1020.56
2023-01-27T13:07:06.728Z,1020.59
2023-01-27T13:08:06.771Z,1020.56
2023-01-27T13:09:06.789Z,1020.63
2023-01-27T13:10:07.088Z,1020.55